Time;durP1;ratioP1;P1;durP2;ratioP2;P2;SDS_P1;SDS_P2;PMS_P1;PMS_P2;Temp;Humidity;BMP_temperature;BMP_pressure;BME280_temperature;BME280_humidity;BME280_pressure;Samples;Min_cycle;Max_cycle;Signal;HPM_P1;HPM_P2
2021/04/06 00:00:53;;;;;;;0.30;0.30;;;1.50;99.90;;;;;;4353842;33;20443;-74
2021/04/06 00:03:23;;;;;;;0.50;0.50;;;1.40;99.90;;;;;;4353979;33;20059;-74
2021/04/06 00:05:55;;;;;;;0.30;0.30;;;1.40;99.90;;;;;;4353378;33;20059;-74
2021/04/06 00:08:22;;;;;;;0.32;0.32;;;1.50;99.90;;;;;;4354660;33;20083;-74
2021/04/06 00:10:51;;;;;;;0.50;0.50;;;1.40;99.90;;;;;;4354090;33;20132;-74
2021/04/06 00:13:17;;;;;;;0.30;0.30;;;1.30;99.90;;;;;;4353658;33;20521;-72
2021/04/06 00:15:45;;;;;;;0.82;0.82;;;1.30;99.90;;;;;;4352891;33;20418;-74
2021/04/06 00:18:14;;;;;;;0.60;0.60;;;1.30;99.90;;;;;;4353124;33;20078;-74
2021/04/06 00:20:41;;;;;;;0.30;0.30;;;1.20;99.90;;;;;;4353640;33;20083;-74
2021/04/06 00:23:09;;;;;;;0.40;0.40;;;1.10;99.90;;;;;;4354804;33;20118;-73
2021/04/06 00:25:38;;;;;;;0.30;0.30;;;1.20;99.90;;;;;;4353555;33;20474;-74
2021/04/06 00:28:07;;;;;;;1.35;0.95;;;1.20;99.90;;;;;;4357128;32;20082;-73
2021/04/06 00:30:35;;;;;;;0.30;0.30;;;1.10;99.90;;;;;;4368351;32;20128;-74
2021/04/06 00:33:05;;;;;;;6.18;1.67;;;1.20;99.90;;;;;;4370297;32;20066;-74
2021/04/06 00:35:34;;;;;;;0.30;0.30;;;1.10;99.90;;;;;;4381677;32;20066;-74
2021/04/06 00:38:01;;;;;;;0.30;0.30;;;1.10;99.90;;;;;;4386451;32;20437;-74
2021/04/06 00:40:31;;;;;;;0.30;0.30;;;1.10;99.90;;;;;;4386155;32;20439;-73
2021/04/06 00:43:00;;;;;;;0.83;0.83;;;1.00;99.90;;;;;;4386031;32;20065;-74
2021/04/06 00:45:26;;;;;;;0.45;0.45;;;1.10;99.90;;;;;;4386036;32;20219;-73
2021/04/06 00:48:16;;;;;;;10.32;1.00;;;1.00;99.90;;;;;;4385179;32;20611;-73
2021/04/06 00:51:08;;;;;;;0.30;0.30;;;1.00;99.90;;;;;;4384348;32;20066;-73
2021/04/06 00:53:54;;;;;;;1.00;0.93;;;0.90;99.90;;;;;;4384951;32;20154;-74
2021/04/06 00:56:30;;;;;;;0.35;0.35;;;0.90;99.90;;;;;;4374826;32;20113;-75
2021/04/06 00:58:59;;;;;;;0.30;0.30;;;0.80;99.90;;;;;;4385583;32;20071;-74
2021/04/06 01:01:33;;;;;;;0.50;0.50;;;0.80;99.90;;;;;;4386500;32;20070;-74
2021/04/06 01:04:03;;;;;;;0.43;0.43;;;0.90;99.90;;;;;;4385032;32;20074;-74
2021/04/06 01:06:29;;;;;;;0.30;0.30;;;0.80;99.90;;;;;;4384966;32;20074;-74
2021/04/06 01:08:56;;;;;;;0.65;0.55;;;0.80;99.90;;;;;;4379709;32;20130;-74
2021/04/06 01:11:23;;;;;;;0.30;0.30;;;0.70;99.90;;;;;;4371053;32;20122;-73
2021/04/06 01:13:49;;;;;;;0.30;0.30;;;0.70;99.90;;;;;;4370194;32;20078;-74
2021/04/06 01:16:17;;;;;;;0.40;0.40;;;0.70;99.90;;;;;;4370217;32;20059;-74
2021/04/06 01:18:43;;;;;;;0.20;0.20;;;0.70;99.90;;;;;;4370041;32;20083;-73
2021/04/06 01:21:10;;;;;;;1.23;1.12;;;0.70;99.90;;;;;;4370101;32;20066;-74
2021/04/06 01:23:37;;;;;;;0.30;0.30;;;0.70;99.90;;;;;;4369523;32;20083;-73
2021/04/06 01:26:08;;;;;;;0.30;0.30;;;0.70;99.90;;;;;;4369686;32;20176;-74
2021/04/06 01:28:33;;;;;;;0.35;0.35;;;0.70;99.90;;;;;;4369422;32;20122;-73
2021/04/06 01:31:02;;;;;;;0.40;0.40;;;0.60;99.90;;;;;;4370093;32;20125;-74
2021/04/06 01:33:31;;;;;;;0.30;0.30;;;0.70;99.90;;;;;;4369657;32;20119;-73
2021/04/06 01:36:00;;;;;;;1.17;1.05;;;0.80;99.90;;;;;;4370489;32;20088;-73
2021/04/06 01:38:27;;;;;;;0.50;0.50;;;0.70;99.90;;;;;;4370002;32;20059;-73
2021/04/06 01:40:55;;;;;;;2.58;0.95;;;0.80;99.90;;;;;;4370095;32;20620;-74
2021/04/06 01:43:27;;;;;;;0.60;0.60;;;0.70;99.90;;;;;;4369686;32;20083;-73
2021/04/06 01:46:13;;;;;;;0.30;0.30;;;0.70;99.90;;;;;;4371207;32;20079;-73
2021/04/06 01:48:38;;;;;;;0.35;0.35;;;0.60;99.90;;;;;;4369733;32;20066;-74
2021/04/06 01:51:04;;;;;;;0.35;0.35;;;0.70;99.90;;;;;;4370085;32;20086;-74
2021/04/06 01:53:30;;;;;;;0.30;0.30;;;0.70;99.90;;;;;;4369397;32;20084;-72
2021/04/06 01:56:00;;;;;;;0.20;0.20;;;0.70;99.90;;;;;;4370225;32;20126;-73
2021/04/06 01:58:28;;;;;;;0.40;0.40;;;0.80;99.90;;;;;;4369952;32;20078;-73
2021/04/06 02:01:13;;;;;;;0.40;0.40;;;0.70;99.90;;;;;;4370601;32;20083;-74
2021/04/06 02:03:46;;;;;;;1.00;0.95;;;0.80;99.90;;;;;;4370722;32;20066;-74
2021/04/06 02:06:13;;;;;;;0.30;0.30;;;0.70;99.90;;;;;;4369250;32;20059;-73
2021/04/06 02:08:44;;;;;;;0.60;0.60;;;0.70;99.90;;;;;;4368959;32;20133;-74
2021/04/06 02:11:09;;;;;;;0.68;0.68;;;0.70;99.90;;;;;;4358055;32;20191;-73
2021/04/06 02:13:35;;;;;;;0.30;0.30;;;0.70;99.90;;;;;;4355397;33;20498;-74
2021/04/06 02:16:02;;;;;;;0.25;0.25;;;0.70;99.90;;;;;;4354445;33;20139;-74
2021/04/06 02:18:29;;;;;;;0.40;0.40;;;0.80;99.90;;;;;;4354562;33;20067;-74
2021/04/06 02:20:58;;;;;;;0.40;0.40;;;0.80;99.90;;;;;;4354909;33;20071;-73
2021/04/06 02:23:25;;;;;;;0.60;0.60;;;0.80;99.90;;;;;;4354047;33;20507;-73
2021/04/06 02:25:53;;;;;;;0.65;0.65;;;0.70;99.90;;;;;;4354261;33;20504;-72
2021/04/06 02:28:22;;;;;;;0.30;0.30;;;0.80;99.90;;;;;;4354324;33;20067;-74
2021/04/06 02:30:50;;;;;;;1.12;1.02;;;0.70;99.90;;;;;;4354442;33;20074;-74
2021/04/06 02:33:17;;;;;;;0.40;0.40;;;0.60;99.90;;;;;;4354929;33;20087;-73
2021/04/06 02:35:53;;;;;;;13.80;1.65;;;0.60;99.90;;;;;;4353831;33;20087;-73
2021/04/06 02:38:20;;;;;;;0.47;0.47;;;0.70;99.90;;;;;;4354182;33;20071;-74
2021/04/06 02:40:45;;;;;;;0.30;0.30;;;0.70;99.90;;;;;;4354788;33;20080;-74
2021/04/06 02:43:11;;;;;;;2.42;0.50;;;0.70;99.90;;;;;;4355487;32;20504;-73
2021/04/06 02:45:38;;;;;;;0.40;0.40;;;0.70;99.90;;;;;;4369691;32;20071;-74
2021/04/06 02:48:06;;;;;;;0.37;0.37;;;0.60;99.90;;;;;;4368612;32;20171;-73
2021/04/06 02:50:34;;;;;;;0.40;0.40;;;0.60;99.90;;;;;;4368941;32;20070;-74
2021/04/06 02:53:04;;;;;;;2.50;1.75;;;0.60;99.90;;;;;;4369945;32;20066;-73
2021/04/06 02:55:29;;;;;;;0.30;0.30;;;0.60;99.90;;;;;;4369730;32;20582;-73
2021/04/06 02:57:55;;;;;;;0.40;0.40;;;0.60;99.90;;;;;;4368881;32;20066;-73
2021/04/06 03:00:31;;;;;;;0.30;0.30;;;0.60;99.90;;;;;;4369670;32;20066;-73
2021/04/06 03:03:02;;;;;;;0.75;0.75;;;0.60;99.90;;;;;;4369152;32;20078;-73
2021/04/06 03:05:30;;;;;;;0.30;0.30;;;0.60;99.90;;;;;;4369032;32;20223;-73
2021/04/06 03:07:55;;;;;;;0.40;0.40;;;0.70;99.90;;;;;;4369222;32;20076;-73
2021/04/06 03:10:22;;;;;;;0.30;0.30;;;0.60;99.90;;;;;;4368450;32;20063;-73
2021/04/06 03:12:48;;;;;;;0.30;0.30;;;0.60;99.90;;;;;;4370021;32;20062;-73
2021/04/06 03:15:20;;;;;;;0.40;0.40;;;0.60;99.90;;;;;;4369220;32;20083;-74
2021/04/06 03:17:49;;;;;;;0.30;0.30;;;0.70;99.90;;;;;;4368669;32;20418;-74
2021/04/06 03:20:17;;;;;;;0.43;0.43;;;0.70;99.90;;;;;;4369680;32;20414;-73
2021/04/06 03:22:43;;;;;;;0.40;0.40;;;0.60;99.90;;;;;;4369475;32;20472;-73
2021/04/06 03:25:12;;;;;;;1.37;1.27;;;0.60;99.90;;;;;;4368027;32;20070;-73
2021/04/06 03:27:42;;;;;;;0.37;0.37;;;0.60;99.90;;;;;;4368756;32;20186;-73
2021/04/06 03:30:08;;;;;;;0.40;0.40;;;0.60;99.90;;;;;;4369126;32;20414;-74
2021/04/06 03:32:34;;;;;;;0.30;0.30;;;0.50;99.90;;;;;;4368565;32;20075;-74
2021/04/06 03:35:00;;;;;;;0.30;0.30;;;0.60;99.90;;;;;;4368487;32;20071;-73
2021/04/06 03:37:28;;;;;;;0.30;0.30;;;0.60;99.90;;;;;;4369845;32;20061;-73
2021/04/06 03:39:54;;;;;;;0.30;0.30;;;0.50;99.90;;;;;;4368714;32;20406;-73
2021/04/06 03:42:23;;;;;;;0.40;0.40;;;0.50;99.90;;;;;;4368966;32;20071;-74
2021/04/06 03:44:49;;;;;;;0.30;0.30;;;0.50;99.90;;;;;;4368930;32;20070;-73
2021/04/06 03:47:14;;;;;;;0.55;0.55;;;0.50;99.90;;;;;;4368661;32;20099;-73
2021/04/06 03:49:48;;;;;;;0.50;0.50;;;0.40;99.90;;;;;;4369563;32;20059;-73
2021/04/06 03:52:14;;;;;;;0.30;0.30;;;0.40;99.90;;;;;;4368633;32;20079;-73
2021/04/06 03:54:49;;;;;;;0.30;0.30;;;0.50;99.90;;;;;;4367833;32;20511;-73
2021/04/06 04:00:04;;;;;;;1.55;0.95;;;0.40;99.90;;;;;;4367967;32;20109;-73
2021/04/06 04:02:30;;;;;;;0.43;0.43;;;0.50;99.90;;;;;;4368528;32;20067;-73
2021/04/06 04:04:56;;;;;;;0.30;0.30;;;0.50;99.90;;;;;;4368496;32;20083;-73
2021/04/06 04:07:21;;;;;;;0.57;0.57;;;0.50;99.90;;;;;;4367556;32;20059;-73
2021/04/06 04:09:47;;;;;;;0.35;0.35;;;0.40;99.90;;;;;;4364996;32;20067;-73
2021/04/06 04:12:13;;;;;;;3.20;1.25;;;0.50;99.90;;;;;;4353074;33;20527;-73
2021/04/06 04:14:38;;;;;;;1.25;1.15;;;0.40;99.90;;;;;;4353234;33;20055;-74
2021/04/06 04:17:06;;;;;;;0.30;0.30;;;0.40;99.90;;;;;;4352863;33;20250;-74
2021/04/06 04:19:32;;;;;;;0.35;0.35;;;0.40;99.90;;;;;;4353437;33;20059;-73
2021/04/06 04:21:57;;;;;;;0.20;0.20;;;0.40;99.90;;;;;;4353278;33;20076;-74
2021/04/06 04:24:23;;;;;;;0.22;0.22;;;0.40;99.90;;;;;;4353607;33;20055;-74
2021/04/06 04:26:48;;;;;;;0.40;0.40;;;0.40;99.90;;;;;;4352930;33;20078;-73
2021/04/06 04:29:14;;;;;;;0.30;0.30;;;0.40;99.90;;;;;;4352949;33;20505;-74
2021/04/06 04:31:43;;;;;;;0.30;0.30;;;0.30;99.90;;;;;;4353365;33;20071;-73
2021/04/06 04:34:09;;;;;;;0.30;0.30;;;0.40;99.90;;;;;;4353543;33;20497;-73
2021/04/06 04:36:34;;;;;;;0.73;0.73;;;0.40;99.90;;;;;;4352381;33;20088;-74
2021/04/06 04:39:00;;;;;;;0.37;0.37;;;0.30;99.90;;;;;;4353084;33;20445;-73
2021/04/06 04:41:25;;;;;;;0.47;0.47;;;0.30;99.90;;;;;;4353416;33;20086;-73
2021/04/06 04:43:51;;;;;;;0.90;0.88;;;0.30;99.90;;;;;;4358469;32;20126;-72
2021/04/06 04:46:16;;;;;;;0.25;0.25;;;0.30;99.90;;;;;;4368210;32;20167;-73
2021/04/06 04:48:42;;;;;;;0.30;0.30;;;0.30;99.90;;;;;;4367670;32;20118;-74
2021/04/06 04:51:07;;;;;;;0.30;0.30;;;0.30;99.90;;;;;;4367644;32;20080;-74
2021/04/06 04:53:33;;;;;;;0.30;0.30;;;0.40;99.90;;;;;;4366755;32;20130;-73
2021/04/06 04:55:58;;;;;;;0.30;0.30;;;0.40;99.90;;;;;;4367907;32;20062;-73
2021/04/06 04:58:24;;;;;;;0.32;0.32;;;0.40;99.90;;;;;;4368645;32;20090;-73
2021/04/06 05:00:49;;;;;;;1.15;1.00;;;0.40;99.90;;;;;;4369225;32;20067;-74
2021/04/06 05:03:15;;;;;;;0.50;0.50;;;0.40;99.90;;;;;;4364238;32;20067;-73
2021/04/06 05:05:40;;;;;;;0.43;0.43;;;0.40;99.90;;;;;;4367539;32;20075;-73
2021/04/06 05:08:06;;;;;;;0.30;0.30;;;0.40;99.90;;;;;;4367035;32;20066;-74
2021/04/06 05:10:31;;;;;;;0.62;0.62;;;0.40;99.90;;;;;;4368638;32;20071;-72
2021/04/06 05:12:57;;;;;;;0.30;0.30;;;0.40;99.90;;;;;;4366900;32;20113;-74
2021/04/06 05:15:22;;;;;;;0.20;0.20;;;0.40;99.90;;;;;;4374077;32;20599;-74
2021/04/06 05:17:48;;;;;;;0.30;0.30;;;0.40;99.90;;;;;;4383898;32;20079;-74
2021/04/06 05:20:14;;;;;;;0.20;0.20;;;0.30;99.90;;;;;;4373723;32;20127;-73
2021/04/06 05:22:39;;;;;;;0.60;0.60;;;0.40;99.90;;;;;;4370023;32;20614;-74
2021/04/06 05:25:06;;;;;;;0.30;0.30;;;0.40;99.90;;;;;;4369590;32;20071;-73
2021/04/06 05:27:31;;;;;;;0.80;0.80;;;0.40;99.90;;;;;;4370084;32;20118;-73
2021/04/06 05:29:57;;;;;;;0.30;0.30;;;0.40;99.90;;;;;;4370115;32;20070;-74
2021/04/06 05:32:23;;;;;;;0.30;0.30;;;0.50;99.90;;;;;;4370394;32;20120;-74
2021/04/06 05:34:48;;;;;;;0.30;0.30;;;0.50;99.90;;;;;;4370716;32;20401;-74
2021/04/06 05:37:14;;;;;;;0.47;0.47;;;0.50;99.90;;;;;;4371432;32;20390;-74
2021/04/06 05:39:40;;;;;;;0.65;0.65;;;0.60;99.90;;;;;;4370187;32;20491;-73
2021/04/06 05:42:07;;;;;;;0.40;0.40;;;0.70;99.90;;;;;;4370467;32;20066;-74
2021/04/06 05:44:33;;;;;;;0.20;0.20;;;0.60;99.90;;;;;;4370991;32;20574;-74
2021/04/06 05:47:02;;;;;;;0.45;0.45;;;0.70;99.90;;;;;;4370231;32;20067;-74
2021/04/06 05:49:31;;;;;;;0.65;0.65;;;0.70;99.90;;;;;;4369151;32;20063;-74
2021/04/06 05:51:57;;;;;;;0.30;0.30;;;0.70;99.90;;;;;;4370336;32;20130;-74
2021/04/06 05:54:25;;;;;;;0.30;0.30;;;0.80;99.90;;;;;;4370477;32;20127;-74
2021/04/06 05:56:50;;;;;;;0.30;0.30;;;0.80;99.90;;;;;;4369972;32;20071;-74
2021/04/06 05:59:16;;;;;;;0.30;0.30;;;0.90;99.90;;;;;;4369532;32;20075;-73
2021/04/06 06:01:44;;;;;;;0.45;0.45;;;1.00;99.90;;;;;;4369916;32;20114;-73
2021/04/06 06:04:11;;;;;;;1.95;1.45;;;1.10;99.90;;;;;;4370166;32;20126;-74
2021/04/06 06:06:37;;;;;;;0.30;0.30;;;1.10;99.90;;;;;;4369376;32;20063;-74
2021/04/06 06:09:04;;;;;;;0.40;0.40;;;1.10;99.90;;;;;;4369665;32;20095;-73
2021/04/06 06:11:31;;;;;;;0.30;0.30;;;1.10;99.90;;;;;;4369927;32;20070;-73
2021/04/06 06:13:57;;;;;;;0.30;0.30;;;1.20;99.90;;;;;;4369520;32;20062;-72
2021/04/06 06:16:26;;;;;;;1.35;1.02;;;1.20;99.90;;;;;;4369525;32;20512;-73
2021/04/06 06:18:55;;;;;;;0.30;0.30;;;1.30;99.90;;;;;;4369903;32;20074;-73
2021/04/06 06:21:23;;;;;;;0.30;0.30;;;1.30;99.90;;;;;;4369522;32;20540;-73
2021/04/06 06:23:49;;;;;;;0.60;0.60;;;1.40;99.90;;;;;;4369047;32;20199;-73
2021/04/06 06:26:17;;;;;;;0.37;0.37;;;1.50;99.90;;;;;;4369889;32;20059;-73
2021/04/06 06:29:04;;;;;;;0.40;0.40;;;1.60;99.90;;;;;;4369083;32;20158;-73
2021/04/06 06:31:42;;;;;;;0.30;0.30;;;1.70;99.90;;;;;;4358032;32;20066;-73
2021/04/06 06:34:31;;;;;;;0.30;0.30;;;1.70;99.90;;;;;;4369724;32;20063;-73
2021/04/06 06:37:24;;;;;;;0.20;0.20;;;1.70;99.90;;;;;;4358437;32;20110;-73
2021/04/06 06:39:56;;;;;;;0.30;0.30;;;1.60;99.90;;;;;;4359206;32;20070;-73
2021/04/06 06:42:25;;;;;;;0.30;0.30;;;1.80;99.90;;;;;;4369523;32;20126;-73
2021/04/06 06:44:51;;;;;;;1.00;0.90;;;1.80;99.90;;;;;;4369227;32;20402;-73
2021/04/06 06:47:22;;;;;;;0.22;0.22;;;2.00;99.90;;;;;;4369360;32;20067;-73
2021/04/06 06:49:52;;;;;;;0.40;0.40;;;2.10;99.90;;;;;;4369360;32;20129;-72
2021/04/06 06:52:27;;;;;;;0.50;0.50;;;2.10;99.90;;;;;;4367805;32;20082;-73
2021/04/06 06:54:58;;;;;;;0.30;0.30;;;2.00;99.90;;;;;;4369512;32;20452;-73
2021/04/06 06:57:38;;;;;;;0.30;0.30;;;2.00;99.90;;;;;;4370726;32;20062;-73
2021/04/06 07:00:06;;;;;;;;;;;2.20;99.90;;;;;;4370599;32;20083;-73
2021/04/06 07:02:31;;;;;;;1.15;1.08;;;2.40;99.90;;;;;;4370991;32;20008;-73
2021/04/06 07:05:19;;;;;;;0.30;0.30;;;2.50;99.90;;;;;;4370592;32;20141;-73
2021/04/06 07:07:55;;;;;;;0.22;0.22;;;2.60;99.90;;;;;;4359326;32;20277;-73
2021/04/06 07:10:23;;;;;;;0.30;0.30;;;2.80;99.90;;;;;;4370549;32;20083;-73
2021/04/06 07:12:57;;;;;;;0.30;0.30;;;2.90;99.90;;;;;;4369391;32;20058;-74
2021/04/06 07:15:23;;;;;;;0.28;0.28;;;3.00;99.90;;;;;;4369437;32;20133;-73
2021/04/06 07:17:50;;;;;;;2.53;1.45;;;3.00;99.90;;;;;;4370492;32;20055;-73
2021/04/06 07:20:21;;;;;;;0.37;0.37;;;3.10;99.90;;;;;;4369046;32;20066;-74
2021/04/06 07:22:47;;;;;;;0.85;0.85;;;2.90;99.90;;;;;;4369985;32;20058;-73
2021/04/06 07:25:14;;;;;;;0.32;0.32;;;2.80;99.90;;;;;;4368328;32;20062;-73
2021/04/06 07:27:42;;;;;;;0.60;0.60;;;2.70;99.90;;;;;;4368375;32;20079;-73
2021/04/06 07:30:10;;;;;;;0.80;0.80;;;2.60;99.90;;;;;;4369414;32;20063;-73
2021/04/06 07:32:39;;;;;;;0.40;0.40;;;2.80;99.90;;;;;;4369128;32;20190;-74
2021/04/06 07:35:06;;;;;;;0.32;0.32;;;3.00;99.90;;;;;;4367970;32;20159;-73
2021/04/06 07:37:32;;;;;;;0.40;0.40;;;3.10;99.90;;;;;;4369234;32;20467;-73
2021/04/06 07:40:03;;;;;;;0.30;0.30;;;3.10;99.90;;;;;;4368412;32;20223;-73
2021/04/06 07:42:29;;;;;;;0.37;0.37;;;3.00;99.90;;;;;;4369085;32;20130;-73
2021/04/06 07:44:55;;;;;;;0.65;0.65;;;3.20;99.90;;;;;;4370615;32;20522;-73
2021/04/06 07:47:36;;;;;;;2.90;1.37;;;3.30;99.90;;;;;;4368887;32;20566;-74
2021/04/06 07:50:02;;;;;;;0.55;0.55;;;3.30;99.90;;;;;;4368870;32;20122;-73
2021/04/06 07:52:28;;;;;;;0.50;0.40;;;3.40;99.90;;;;;;4368898;32;20125;-73
2021/04/06 07:54:54;;;;;;;3.72;2.12;;;3.40;99.90;;;;;;4368245;32;20130;-73
2021/04/06 07:57:19;;;;;;;0.30;0.30;;;3.50;99.90;;;;;;4368614;32;20080;-73
2021/04/06 07:59:51;;;;;;;0.85;0.62;;;3.80;99.90;;;;;;4368235;32;20071;-73
2021/04/06 08:02:22;;;;;;;20.27;1.27;;;3.80;99.90;;;;;;4368919;32;20074;-73
2021/04/06 08:04:52;;;;;;;;;;;3.80;99.90;;;;;;4368320;32;20070;-73
2021/04/06 08:07:23;;;;;;;0.50;0.50;;;3.90;99.90;;;;;;4368675;32;19946;-73
2021/04/06 08:09:51;;;;;;;0.28;0.28;;;4.00;99.90;;;;;;4368539;32;20516;-74
2021/04/06 08:12:34;;;;;;;0.80;0.80;;;4.10;99.90;;;;;;4368827;32;20504;-73
2021/04/06 08:15:17;;;;;;;0.40;0.40;;;4.00;99.90;;;;;;4368807;32;20141;-73
2021/04/06 08:17:47;;;;;;;0.62;0.45;;;3.80;99.90;;;;;;4368339;32;20055;-73
2021/04/06 08:20:18;;;;;;;0.73;0.73;;;3.70;99.90;;;;;;4368965;32;20067;-73
2021/04/06 08:23:02;;;;;;;0.40;0.40;;;3.60;99.90;;;;;;4368487;32;20055;-73
2021/04/06 08:25:31;;;;;;;0.30;0.30;;;3.50;99.90;;;;;;4368058;32;20055;-73
2021/04/06 08:27:58;;;;;;;0.40;0.40;;;3.60;99.90;;;;;;4368289;32;20070;-73
2021/04/06 08:30:34;;;;;;;0.45;0.45;;;3.70;99.90;;;;;;4368701;32;20070;-73
2021/04/06 08:33:02;;;;;;;2.30;1.17;;;3.50;99.90;;;;;;4369094;32;20520;-73
2021/04/06 08:35:49;;;;;;;0.90;0.82;;;3.60;99.90;;;;;;4368386;32;20062;-73
2021/04/06 08:38:25;;;;;;;0.40;0.40;;;3.80;99.90;;;;;;4356652;32;20432;-73
2021/04/06 08:41:11;;;;;;;0.40;0.40;;;3.60;99.90;;;;;;4368446;32;20385;-73
2021/04/06 08:43:55;;;;;;;0.55;0.55;;;3.50;99.90;;;;;;4368051;32;20140;-73
2021/04/06 08:46:35;;;;;;;0.50;0.50;;;3.50;99.90;;;;;;4374239;32;20381;-73
2021/04/06 08:49:01;;;;;;;0.32;0.32;;;3.60;99.90;;;;;;4383415;32;20082;-73
2021/04/06 08:51:33;;;;;;;0.55;0.55;;;3.60;99.90;;;;;;4383236;32;20159;-74
2021/04/06 08:54:01;;;;;;;0.50;0.50;;;3.60;99.90;;;;;;4384410;32;20062;-73
2021/04/06 08:56:29;;;;;;;0.60;0.60;;;3.60;99.90;;;;;;4387396;32;20153;-73
2021/04/06 08:59:13;;;;;;;0.30;0.30;;;3.50;99.90;;;;;;4375645;32;20401;-72
2021/04/06 09:01:41;;;;;;;0.30;0.30;;;3.50;99.90;;;;;;4372272;32;20070;-73
2021/04/06 09:04:17;;;;;;;0.30;0.30;;;3.60;99.90;;;;;;4369963;32;20551;-73
2021/04/06 09:06:44;;;;;;;0.40;0.40;;;3.50;99.90;;;;;;4369942;32;20508;-72
2021/04/06 09:09:11;;;;;;;0.30;0.30;;;3.60;99.90;;;;;;4370206;32;20067;-73
2021/04/06 09:11:38;;;;;;;0.40;0.40;;;3.50;99.90;;;;;;4370677;32;20515;-73
2021/04/06 09:14:04;;;;;;;0.40;0.40;;;3.50;99.90;;;;;;4369388;32;20084;-73
2021/04/06 09:16:32;;;;;;;0.55;0.55;;;3.50;99.90;;;;;;4370361;32;20083;-74
2021/04/06 09:19:02;;;;;;;0.85;0.85;;;3.50;99.90;;;;;;4370737;32;20122;-73
2021/04/06 09:21:30;;;;;;;1.87;1.10;;;3.40;99.90;;;;;;4370924;32;20125;-74
2021/04/06 09:24:00;;;;;;;0.50;0.50;;;3.50;99.90;;;;;;4369960;32;20070;-73
2021/04/06 09:26:26;;;;;;;0.50;0.50;;;3.70;99.90;;;;;;4371300;32;20114;-73
2021/04/06 09:29:00;;;;;;;0.35;0.35;;;3.80;99.90;;;;;;4370365;32;20070;-74
2021/04/06 09:31:27;;;;;;;0.30;0.30;;;4.00;99.90;;;;;;4372119;32;20131;-74
2021/04/06 09:34:02;;;;;;;0.50;0.50;;;4.20;99.90;;;;;;4370389;32;20059;-74
2021/04/06 09:36:28;;;;;;;4.95;0.80;;;4.30;99.90;;;;;;4371362;32;20528;-74
2021/04/06 09:38:54;;;;;;;0.62;0.57;;;4.40;99.90;;;;;;4368354;32;73393;-74
2021/04/06 09:41:31;;;;;;;0.37;0.37;;;4.40;99.90;;;;;;4370709;32;20134;-74
2021/04/06 09:43:57;;;;;;;2.17;1.25;;;4.30;99.90;;;;;;4370675;32;20059;-74
2021/04/06 09:46:33;;;;;;;0.50;0.50;;;4.20;99.90;;;;;;4365062;32;20524;-74
2021/04/06 09:48:59;;;;;;;0.73;0.65;;;4.30;99.90;;;;;;4354562;33;20504;-74
2021/04/06 09:51:25;;;;;;;4.20;1.10;;;4.50;99.90;;;;;;4364194;32;20062;-74
2021/04/06 09:53:50;;;;;;;0.30;0.30;;;4.50;99.90;;;;;;4369764;32;20522;-73
2021/04/06 09:56:16;;;;;;;1.02;1.00;;;4.60;99.90;;;;;;4370522;32;20133;-74
2021/04/06 09:58:42;;;;;;;0.68;0.68;;;4.90;99.90;;;;;;4361203;32;20386;-74
2021/04/06 10:01:27;;;;;;;5.18;1.55;;;5.00;99.90;;;;;;4356030;32;20084;-74
2021/04/06 10:03:55;;;;;;;0.40;0.40;;;4.70;99.90;;;;;;4354925;32;20071;-74
2021/04/06 10:06:33;;;;;;;0.77;0.75;;;4.60;99.90;;;;;;4357830;32;20071;-74
2021/04/06 10:08:58;;;;;;;0.30;0.30;;;4.80;99.90;;;;;;4369423;32;20079;-73
2021/04/06 10:11:25;;;;;;;0.40;0.40;;;4.80;99.90;;;;;;4358535;32;20524;-74
2021/04/06 10:13:51;;;;;;;0.43;0.43;;;4.70;99.90;;;;;;4355663;33;20079;-76
2021/04/06 10:16:17;;;;;;;0.60;0.60;;;4.70;99.90;;;;;;4355341;32;20083;-74
2021/04/06 10:18:45;;;;;;;0.40;0.40;;;4.70;99.90;;;;;;4355275;33;20084;-74
2021/04/06 10:21:23;;;;;;;0.55;0.55;;;5.00;99.90;;;;;;4355456;33;20067;-74
2021/04/06 10:23:49;;;;;;;6.72;0.93;;;5.40;99.90;;;;;;4354175;33;20063;-73
2021/04/06 10:26:23;;;;;;;0.35;0.35;;;5.30;99.90;;;;;;4355060;33;20126;-74
2021/04/06 10:29:01;;;;;;;0.60;0.60;;;5.70;99.90;;;;;;4355441;32;20117;-74
2021/04/06 10:31:26;;;;;;;0.37;0.37;;;6.00;99.90;;;;;;4354860;33;20090;-74
2021/04/06 10:33:52;;;;;;;0.45;0.45;;;5.90;99.90;;;;;;4355147;32;20074;-74
2021/04/06 10:36:19;;;;;;;0.22;0.22;;;5.70;99.90;;;;;;4354116;33;20075;-74
2021/04/06 10:38:45;;;;;;;0.52;0.52;;;5.40;99.90;;;;;;4354533;32;20066;-74
2021/04/06 10:41:13;;;;;;;0.40;0.40;;;5.50;99.90;;;;;;4355023;33;20516;-74
2021/04/06 10:43:41;;;;;;;0.30;0.30;;;5.70;99.90;;;;;;4357240;32;20083;-74
2021/04/06 10:46:09;;;;;;;0.35;0.35;;;6.30;99.90;;;;;;4373266;32;20580;-74
2021/04/06 10:48:38;;;;;;;0.30;0.30;;;6.70;99.90;;;;;;4384627;32;20085;-74
2021/04/06 10:51:14;;;;;;;1.17;1.08;;;6.20;99.90;;;;;;4384540;32;20073;-74
2021/04/06 10:53:45;;;;;;;0.40;0.40;;;6.00;99.90;;;;;;4384196;32;20562;-74
2021/04/06 10:56:14;;;;;;;0.50;0.50;;;6.30;99.90;;;;;;4384395;32;20073;-72
2021/04/06 10:58:47;;;;;;;2.40;1.52;;;6.90;99.90;;;;;;4374756;32;20134;-74
2021/04/06 11:01:16;;;;;;;0.35;0.35;;;7.20;99.90;;;;;;4369886;32;20071;-74
2021/04/06 11:03:51;;;;;;;0.47;0.47;;;7.90;99.90;;;;;;4370271;32;20495;-74
2021/04/06 11:06:22;;;;;;;0.37;0.37;;;8.20;99.10;;;;;;4368594;32;20075;-74
2021/04/06 11:08:51;;;;;;;0.50;0.50;;;8.30;97.20;;;;;;4369048;32;20059;-74
2021/04/06 11:11:27;;;;;;;1.35;0.90;;;8.00;97.70;;;;;;4368910;32;20131;-74
2021/04/06 11:13:55;;;;;;;2.55;0.82;;;7.30;98.60;;;;;;4369290;32;20074;-74
2021/04/06 11:16:21;;;;;;;0.95;0.68;;;6.90;99.40;;;;;;4369495;32;20112;-75
2021/04/06 11:19:08;;;;;;;0.30;0.30;;;7.50;99.90;;;;;;4369364;32;20086;-74
2021/04/06 11:21:36;;;;;;;1.33;0.85;;;8.10;98.10;;;;;;4358077;32;20446;-74
2021/04/06 11:24:02;;;;;;;3.75;0.62;;;7.70;98.40;;;;;;4368539;32;20405;-74
2021/04/06 11:26:28;;;;;;;0.75;0.73;;;7.60;98.30;;;;;;4369255;32;20408;-74
2021/04/06 11:28:54;;;;;;;4.90;0.80;;;7.00;98.60;;;;;;4368997;32;20126;-74
2021/04/06 11:31:19;;;;;;;0.35;0.35;;;6.90;98.90;;;;;;4369440;32;20066;-74
2021/04/06 11:33:45;;;;;;;0.40;0.40;;;7.00;99.60;;;;;;4369458;32;20078;-74
2021/04/06 11:36:12;;;;;;;0.50;0.50;;;7.60;99.90;;;;;;4368631;32;20065;-74
2021/04/06 11:38:38;;;;;;;0.35;0.35;;;8.30;96.80;;;;;;4369048;32;20398;-74
2021/04/06 11:41:03;;;;;;;1.33;0.73;;;8.70;96.20;;;;;;4368876;32;20131;-74
2021/04/06 11:43:29;;;;;;;0.40;0.40;;;8.40;96.20;;;;;;4369018;32;20452;-74
2021/04/06 11:45:55;;;;;;;4.95;1.05;;;8.90;96.20;;;;;;4373408;32;20070;-74
2021/04/06 11:48:21;;;;;;;1.65;0.62;;;9.00;95.40;;;;;;4384156;32;20073;-74
2021/04/06 11:50:47;;;;;;;0.30;0.30;;;8.70;95.20;;;;;;4383461;32;20091;-74
2021/04/06 11:53:13;;;;;;;22.90;0.50;;;8.20;96.40;;;;;;4382647;32;20094;-74
2021/04/06 11:55:38;;;;;;;0.40;0.40;;;7.30;98.20;;;;;;4383298;32;20074;-73
2021/04/06 11:58:04;;;;;;;0.20;0.20;;;6.60;99.90;;;;;;4378199;32;20166;-74
2021/04/06 12:00:30;;;;;;;0.40;0.40;;;6.50;99.90;;;;;;4368715;32;20083;-74
2021/04/06 12:02:55;;;;;;;3.50;1.77;;;7.10;99.20;;;;;;4369248;32;20389;-74
2021/04/06 12:05:21;;;;;;;4.82;0.60;;;6.90;98.60;;;;;;4368832;32;20079;-73
2021/04/06 12:07:46;;;;;;;0.45;0.45;;;6.90;98.70;;;;;;4368403;32;20070;-74
2021/04/06 12:10:14;;;;;;;0.60;0.60;;;7.60;97.80;;;;;;4368763;32;20071;-74
2021/04/06 12:12:39;;;;;;;1.87;0.70;;;8.50;96.30;;;;;;4368513;32;20126;-74
2021/04/06 12:15:06;;;;;;;4.53;1.73;;;9.30;94.90;;;;;;4369681;32;20503;-74
2021/04/06 12:17:31;;;;;;;0.30;0.30;;;9.40;93.90;;;;;;4368235;32;20075;-74
2021/04/06 12:19:57;;;;;;;3.47;0.55;;;9.80;92.80;;;;;;4368712;32;20063;-74
2021/04/06 12:22:23;;;;;;;3.95;2.20;;;10.40;91.70;;;;;;4368138;32;20179;-74
2021/04/06 12:24:49;;;;;;;10.80;0.50;;;11.20;91.20;;;;;;4367791;32;20074;-74
2021/04/06 12:27:14;;;;;;;0.40;0.40;;;11.50;86.70;;;;;;4368610;32;20091;-74
2021/04/06 12:29:40;;;;;;;0.55;0.55;;;11.20;86.80;;;;;;4370772;32;20516;-74
2021/04/06 12:32:06;;;;;;;0.65;0.65;;;11.20;87.50;;;;;;4370549;32;20067;-74
2021/04/06 12:34:31;;;;;;;0.75;0.73;;;11.90;88.60;;;;;;4370756;32;20074;-75
2021/04/06 12:36:57;;;;;;;1.12;0.50;;;11.70;81.70;;;;;;4371820;32;20110;-75
2021/04/06 12:39:23;;;;;;;0.20;0.20;;;10.80;81.00;;;;;;4371107;32;20653;-74
2021/04/06 12:41:48;;;;;;;1.33;1.23;;;9.80;81.10;;;;;;4370805;32;20164;-74
2021/04/06 12:44:14;;;;;;;4.12;0.43;;;9.30;85.00;;;;;;4371311;32;20445;-74
2021/04/06 12:46:39;;;;;;;1.00;0.55;;;8.30;91.10;;;;;;4378003;32;20086;-74
2021/04/06 12:49:05;;;;;;;0.30;0.30;;;7.60;92.90;;;;;;4386778;32;20066;-73
2021/04/06 12:51:31;;;;;;;5.85;1.25;;;7.00;93.80;;;;;;4385793;32;20062;-73
2021/04/06 12:53:56;;;;;;;1.10;0.93;;;6.70;93.90;;;;;;4384725;32;20074;-73
2021/04/06 12:56:22;;;;;;;0.30;0.30;;;6.40;94.10;;;;;;4385334;32;20148;-73
2021/04/06 12:58:47;;;;;;;0.30;0.30;;;6.20;94.80;;;;;;4376019;32;20087;-73
2021/04/06 13:01:13;;;;;;;0.37;0.37;;;6.20;95.60;;;;;;4371172;32;20118;-73
2021/04/06 13:03:38;;;;;;;0.50;0.50;;;6.20;95.60;;;;;;4370629;32;20078;-73
2021/04/06 13:06:04;;;;;;;0.25;0.25;;;6.80;95.60;;;;;;4369795;32;20067;-72
2021/04/06 13:08:30;;;;;;;0.28;0.28;;;8.20;93.60;;;;;;4369650;32;20086;-74